Observation data for Seminole on 08/12/2019      Previous  Date  Next       Current Mesonet Observations  Soil Data  Daily Summary Page  Observations in Plain Language
KSM1 120500Z 17007KT 27/13 A30 RMK A01 T02660130  RH  045%=      5-min Rain = 0
KSM1 120505Z 18007KT 27/12 A30 RMK A01 T02720124  RH  042%=      5-min Rain = 0
KSM1 120510Z 18007KT 28/12 A30 RMK A01 T02820117  RH  037%=      5-min Rain = 0
KSM1 120515Z 18007KT 29/11 A3001 RMK A01 T02880114  RH  035%=      5-min Rain = 0
KSM1 120520Z 18007KT 29/11 A3001 RMK A01 T02890114  RH  035%=      5-min Rain = 0
KSM1 120525Z 18006KT 29/11 A30 RMK A01 T02880114  RH  035%=      5-min Rain = 0
KSM1 120530Z 19005KT 29/12 A30 RMK A01 T02850115  RH  036%=      5-min Rain = 0
KSM1 120535Z 18006KT 28/12 A3001 RMK A01 T02810117  RH  037%=      5-min Rain = 0
KSM1 120540Z 17006KT 28/12 A3001 RMK A01 T02780118  RH  038%=      5-min Rain = 0
KSM1 120545Z 16006KT 28/12 A3001 RMK A01 T02760121  RH  040%=      5-min Rain = 0
KSM1 120550Z 17007KT 27/12 A3001 RMK A01 T02700123  RH  042%=      5-min Rain = 0
KSM1 120555Z 17007KT 27/12 A3001 RMK A01 T02670123  RH  042%=      5-min Rain = 0
KSM1 120600Z 18007KT 27/12 A3001 RMK A01 T02690121  RH  041%=      5-min Rain = 0
KSM1 120605Z 17007KT 27/12 A3001 RMK A01 T02720120  RH  040%=      5-min Rain = 0
KSM1 120610Z 17006KT 27/12 A3001 RMK A01 T02710120  RH  041%=      5-min Rain = 0
KSM1 120615Z 17006KT 27/12 A3001 RMK A01 T02690121  RH  041%=      5-min Rain = 0
KSM1 120620Z 18006KT 27/12 A3001 RMK A01 T02680121  RH  042%=      5-min Rain = 0
KSM1 120625Z 17005KT 27/12 A3001 RMK A01 T02660122  RH  042%=      5-min Rain = 0
KSM1 120630Z 18006KT 27/12 A3001 RMK A01 T02650121  RH  042%=      5-min Rain = 0
KSM1 120635Z 18006KT 27/12 A3001 RMK A01 T02680118  RH  041%=      5-min Rain = 0
KSM1 120640Z 18007KT 27/12 A3001 RMK A01 T02720117  RH  039%=      5-min Rain = 0
KSM1 120645Z 18007KT 28/12 A3001 RMK A01 T02750117  RH  039%=      5-min Rain = 0
KSM1 120650Z 18007KT 28/12 A3001 RMK A01 T02750117  RH  039%=      5-min Rain = 0
KSM1 120655Z 19006KT 28/12 A3001 RMK A01 T02750118  RH  039%=      5-min Rain = 0
KSM1 120700Z 19007KT 28/12 A3001 RMK A01 T02750118  RH  039%=      5-min Rain = 0
KSM1 120705Z 18007KT 28/12 A30 RMK A01 T02750118  RH  039%=      5-min Rain = 0
KSM1 120710Z 17006KT 28/12 A30 RMK A01 T02750119  RH  039%=      5-min Rain = 0
KSM1 120715Z 17006KT 27/12 A30 RMK A01 T02720121  RH  040%=      5-min Rain = 0
KSM1 120720Z 16006KT 27/12 A30 RMK A01 T02670123  RH  043%=      5-min Rain = 0
KSM1 120725Z 16005KT 26/12 A30 RMK A01 T02610124  RH  044%=      5-min Rain = 0
KSM1 120730Z 16005KT 26/13 A2999 RMK A01 T02570125  RH  045%=      5-min Rain = 0
KSM1 120735Z 16005KT 25/13 A30 RMK A01 T02540126  RH  047%=      5-min Rain = 0
KSM1 120740Z 16004KT 25/13 A2999 RMK A01 T02510125  RH  047%=      5-min Rain = 0
KSM1 120745Z 16005KT 25/13 A2999 RMK A01 T02480125  RH  048%=      5-min Rain = 0
KSM1 120750Z 15005KT 25/13 A2999 RMK A01 T02470126  RH  049%=      5-min Rain = 0
KSM1 120755Z 15004KT 25/13 A2999 RMK A01 T02460126  RH  049%=      5-min Rain = 0
KSM1 120800Z 16002KT 25/13 A2999 RMK A01 T02450126  RH  049%=      5-min Rain = 0
KSM1 120805Z 16001KT 24/13 A30 RMK A01 T02430125  RH  050%=      5-min Rain = 0
KSM1 120810Z 23001KT 24/13 A30 RMK A01 T02410126  RH  051%=      5-min Rain = 0
KSM1 120815Z 22002KT 24/13 A30 RMK A01 T02440126  RH  050%=      5-min Rain = 0
KSM1 120820Z 20002KT 25/13 A2999 RMK A01 T02480125  RH  048%=      5-min Rain = 0
KSM1 120825Z 19003KT 25/12 A2999 RMK A01 T02530124  RH  046%=      5-min Rain = 0
KSM1 120830Z 20004KT 26/12 A2999 RMK A01 T02560124  RH  046%=      5-min Rain = 0
KSM1 120835Z 20004KT 26/12 A2999 RMK A01 T02550124  RH  046%=      5-min Rain = 0
KSM1 120840Z 23003KT 26/13 A2999 RMK A01 T02560125  RH  046%=      5-min Rain = 0
KSM1 120845Z 23003KT 26/13 A2999 RMK A01 T02570125  RH  045%=      5-min Rain = 0
KSM1 120850Z 25003KT 26/12 A2999 RMK A01 T02550124  RH  046%=      5-min Rain = 0
KSM1 120855Z 27004KT 25/12 A2999 RMK A01 T02530124  RH  046%=      5-min Rain = 0
KSM1 120900Z 27005KT 25/12 A30 RMK A01 T02510123  RH  047%=      5-min Rain = 0
KSM1 120905Z 27004KT 25/12 A2999 RMK A01 T02480124  RH  048%=      5-min Rain = 0
KSM1 120910Z 27003KT 25/12 A2999 RMK A01 T02460124  RH  048%=      5-min Rain = 0
KSM1 120915Z 26003KT 25/12 A2999 RMK A01 T02460124  RH  048%=      5-min Rain = 0
KSM1 120920Z 26002KT 25/12 A2999 RMK A01 T02460124  RH  048%=      5-min Rain = 0
KSM1 120925Z 25001KT 24/13 A2999 RMK A01 T02420125  RH  050%=      5-min Rain = 0
KSM1 120930Z 25000KT 23/13 A2999 RMK A01 T02340126  RH  053%=      5-min Rain = 0
KSM1 120935Z 25000KT 23/13 A2999 RMK A01 T02290126  RH  054%=      5-min Rain = 0
KSM1 120940Z 35000KT 23/13 A2999 RMK A01 T02250126  RH  056%=      5-min Rain = 0
KSM1 120945Z 02003KT 22/13 A2999 RMK A01 T02230126  RH  056%=      5-min Rain = 0
KSM1 120950Z 02003KT 22/13 A2999 RMK A01 T02210128  RH  058%=      5-min Rain = 0
KSM1 120955Z 02003KT 22/13 A2999 RMK A01 T02210130  RH  059%=      5-min Rain = 0
KSM1 121000Z 03003KT 22/13 A2999 RMK A01 T02210134  RH  060%=      5-min Rain = 0
KSM1 121005Z 04004KT 22/14 A2999 RMK A01 T02210137  RH  062%=      5-min Rain = 0
KSM1 121010Z 05004KT 22/14 A2999 RMK A01 T02200139  RH  063%=      5-min Rain = 0
KSM1 121015Z 06003KT 22/14 A2999 RMK A01 T02200139  RH  062%=      5-min Rain = 0
KSM1 121020Z 09003KT 22/14 A2999 RMK A01 T02190138  RH  063%=      5-min Rain = 0
KSM1 121025Z 10003KT 22/14 A2999 RMK A01 T02170138  RH  063%=      5-min Rain = 0
KSM1 121030Z 08004KT 22/14 A2999 RMK A01 T02150138  RH  064%=      5-min Rain = 0
KSM1 121035Z 07004KT 21/14 A2999 RMK A01 T02140138  RH  064%=      5-min Rain = 0
KSM1 121040Z 07003KT 21/14 A2999 RMK A01 T02140137  RH  064%=      5-min Rain = 0
KSM1 121045Z 08004KT 22/14 A2999 RMK A01 T02150137  RH  064%=      5-min Rain = 0
KSM1 121050Z 08005KT 22/14 A2999 RMK A01 T02150136  RH  063%=      5-min Rain = 0
KSM1 121055Z 08006KT 22/14 A2999 RMK A01 T02150135  RH  063%=      5-min Rain = 0
KSM1 121100Z 09006KT 21/13 A2999 RMK A01 T02140133  RH  063%=      5-min Rain = 0
KSM1 121105Z 09006KT 21/13 A2999 RMK A01 T02140131  RH  062%=      5-min Rain = 0
KSM1 121110Z 09006KT 21/13 A2999 RMK A01 T02130130  RH  062%=      5-min Rain = 0
KSM1 121115Z 08006KT 21/13 A2999 RMK A01 T02120130  RH  062%=      5-min Rain = 0
KSM1 121120Z 07005KT 21/13 A2999 RMK A01 T02130129  RH  061%=      5-min Rain = 0
KSM1 121125Z 06005KT 21/13 A2999 RMK A01 T02130129  RH  061%=      5-min Rain = 0
KSM1 121130Z 06004KT 21/13 A30 RMK A01 T02120128  RH  061%=      5-min Rain = 0
KSM1 121135Z 06004KT 21/13 A30 RMK A01 T02130129  RH  061%=      5-min Rain = 0
KSM1 121140Z 06004KT 21/13 A30 RMK A01 T02130128  RH  061%=      5-min Rain = 0
KSM1 121145Z 07005KT 21/13 A30 RMK A01 T02120128  RH  061%=      5-min Rain = 0
KSM1 121150Z 07005KT 21/13 A30 RMK A01 T02110129  RH  062%=      5-min Rain = 0
KSM1 121155Z 07005KT 21/13 A30 RMK A01 T02100129  RH  062%=      5-min Rain = 0
KSM1 121200Z 06005KT 21/13 A30 RMK A01 T02100129  RH  063%=      5-min Rain = 0
KSM1 121205Z 05004KT 21/13 A30 RMK A01 T02100129  RH  062%=      5-min Rain = 0
KSM1 121210Z 03003KT 21/13 A30 RMK A01 T02110128  RH  061%=      5-min Rain = 0
KSM1 121215Z 04004KT 21/13 A30 RMK A01 T02100129  RH  062%=      5-min Rain = 0
KSM1 121220Z 04004KT 21/13 A30 RMK A01 T02080129  RH  063%=      5-min Rain = 0
KSM1 121225Z 04004KT 21/13 A3001 RMK A01 T02100129  RH  062%=      5-min Rain = 0
KSM1 121230Z 06004KT 21/13 A3001 RMK A01 T02120129  RH  062%=      5-min Rain = 0
KSM1 121235Z 06004KT 21/13 A3001 RMK A01 T02140131  RH  062%=      5-min Rain = 0
KSM1 121240Z 06004KT 22/13 A3001 RMK A01 T02160132  RH  061%=      5-min Rain = 0
KSM1 121245Z 06002KT 22/13 A3001 RMK A01 T02180132  RH  060%=      5-min Rain = 0
KSM1 121250Z 06001KT 22/13 A3001 RMK A01 T02200133  RH  060%=      5-min Rain = 0
KSM1 121255Z 05001KT 22/13 A3002 RMK A01 T02230133  RH  059%=      5-min Rain = 0
KSM1 121300Z 05000KT 23/13 A3002 RMK A01 T02260134  RH  059%=      5-min Rain = 0
KSM1 121305Z 05000KT 23/14 A3002 RMK A01 T02280135  RH  058%=      5-min Rain = 0
KSM1 121310Z 05000KT 23/14 A3002 RMK A01 T02310136  RH  057%=      5-min Rain = 0
KSM1 121315Z 05000KT 24/14 A3002 RMK A01 T02360135  RH  055%=      5-min Rain = 0
KSM1 121320Z 06000KT 25/14 A3002 RMK A01 T02450136  RH  052%=      5-min Rain = 0
KSM1 121325Z 14001KT 25/14 A3002 RMK A01 T02490136  RH  051%=      5-min Rain = 0
KSM1 121330Z 14002KT 25/14 A3002 RMK A01 T02500138  RH  052%=      5-min Rain = 0
KSM1 121335Z 15002KT 25/14 A3002 RMK A01 T02490139  RH  053%=      5-min Rain = 0
KSM1 121340Z 18002KT 25/14 A3002 RMK A01 T02490140  RH  053%=      5-min Rain = 0
KSM1 121345Z 17003KT 25/14 A3002 RMK A01 T02510140  RH  052%=      5-min Rain = 0
KSM1 121350Z 16003KT 25/14 A3002 RMK A01 T02530142  RH  052%=      5-min Rain = 0
KSM1 121355Z 16004KT 26/14 A3002 RMK A01 T02570143  RH  051%=      5-min Rain = 0
KSM1 121400Z 17005KT 26/14 A3002 RMK A01 T02600140  RH  050%=      5-min Rain = 0
KSM1 121405Z 17005KT 26/14 A3002 RMK A01 T02640140  RH  048%=      5-min Rain = 0
KSM1 121410Z 17006KT 27/14 A3002 RMK A01 T02680138  RH  047%=      5-min Rain = 0
KSM1 121415Z 17006KT 27/14 A3002 RMK A01 T02700139  RH  046%=      5-min Rain = 0
KSM1 121420Z 17007KT 27/14 A3002 RMK A01 T02730138  RH  045%=      5-min Rain = 0
KSM1 121425Z 19008KT 27/14 A3002 RMK A01 T02740136  RH  044%=      5-min Rain = 0
KSM1 121430Z 19007KT 28/13 A3002 RMK A01 T02790134  RH  043%=      5-min Rain = 0
KSM1 121435Z 18009KT 28/13 A3002 RMK A01 T02810132  RH  042%=      5-min Rain = 0
KSM1 121440Z 17009KT 28/13 A3002 RMK A01 T02810133  RH  042%=      5-min Rain = 0
KSM1 121445Z 18008KT 28/13 A3002 RMK A01 T02830133  RH  041%=      5-min Rain = 0
KSM1 121450Z 17009KT 29/14 A3002 RMK A01 T02860136  RH  041%=      5-min Rain = 0
KSM1 121455Z 17009KT 29/13 A3002 RMK A01 T02890133  RH  040%=      5-min Rain = 0
KSM1 121500Z 18010KT 29/13 A3002 RMK A01 T02910133  RH  040%=      5-min Rain = 0
KSM1 121505Z 19009KT 29/13 A3002 RMK A01 T02910132  RH  039%=      5-min Rain = 0
KSM1 121510Z 17008KT 29/14 A3002 RMK A01 T02940135  RH  039%=      5-min Rain = 0
KSM1 121515Z 19008KT 30/13 A3002 RMK A01 T02970133  RH  038%=      5-min Rain = 0
KSM1 121520Z 20008KT 30/13 A3002 RMK A01 T03000132  RH  037%=      5-min Rain = 0
KSM1 121525Z 20009KT 30/13 A3002 RMK A01 T03000131  RH  037%=      5-min Rain = 0
KSM1 121530Z 20008KT 30/13 A3002 RMK A01 T03030132  RH  037%=      5-min Rain = 0
KSM1 121535Z 20009KT 31/13 A3002 RMK A01 T03050130  RH  036%=      5-min Rain = 0
KSM1 121540Z 20009KT 31/13 A3001 RMK A01 T03080130  RH  035%=      5-min Rain = 0
KSM1 121545Z 22008KT 31/13 A3001 RMK A01 T03090129  RH  035%=      5-min Rain = 0
KSM1 121550Z 21008KT 31/13 A3001 RMK A01 T03120130  RH  034%=      5-min Rain = 0
KSM1 121555Z 23008G13KT 31/13 A3001 RMK A01 T03140129  RH  034%=      5-min Rain = 0
KSM1 121600Z 23007KT 32/13 A3001 RMK A01 T03160129  RH  033%=      5-min Rain = 0
KSM1 121605Z 22008G13KT 32/13 A3001 RMK A01 T03210128  RH  032%=      5-min Rain = 0
KSM1 121610Z 25008G13KT 32/13 A3001 RMK A01 T03220125  RH  031%=      5-min Rain = 0
KSM1 121615Z 23007G14KT 32/13 A3001 RMK A01 T03220125  RH  031%=      5-min Rain = 0
KSM1 121620Z 22007KT 33/13 A3001 RMK A01 T03270126  RH  031%=      5-min Rain = 0
KSM1 121625Z 24008KT 33/12 A3001 RMK A01 T03290123  RH  030%=      5-min Rain = 0
KSM1 121630Z 25007KT 33/12 A3001 RMK A01 T03310121  RH  029%=      5-min Rain = 0
KSM1 121635Z 26007KT 33/12 A3001 RMK A01 T03310118  RH  028%=      5-min Rain = 0
KSM1 121640Z 26008KT 33/12 A3001 RMK A01 T03320120  RH  028%=      5-min Rain = 0
KSM1 121645Z 24007KT 33/12 A3001 RMK A01 T03340120  RH  028%=      5-min Rain = 0
KSM1 121650Z 24008KT 34/12 A30 RMK A01 T03360120  RH  028%=      5-min Rain = 0
KSM1 121655Z 26008G13KT 34/12 A30 RMK A01 T03370119  RH  028%=      5-min Rain = 0
KSM1 121700Z 25007G12KT 34/12 A30 RMK A01 T03360121  RH  028%=      5-min Rain = 0
KSM1 121705Z 25006G12KT 34/12 A30 RMK A01 T03410122  RH  028%=      5-min Rain = 0
KSM1 121710Z 26009G14KT 34/12 A30 RMK A01 T03430118  RH  027%=      5-min Rain = 0
KSM1 121715Z 25008G15KT 34/12 A30 RMK A01 T03410118  RH  027%=      5-min Rain = 0
KSM1 121720Z 26009KT 34/12 A30 RMK A01 T03430118  RH  027%=      5-min Rain = 0
KSM1 121725Z 24008G13KT 34/12 A30 RMK A01 T03420118  RH  027%=      5-min Rain = 0
KSM1 121730Z 24008KT 35/12 A30 RMK A01 T03460119  RH  026%=      5-min Rain = 0
KSM1 121735Z 27008G13KT 35/12 A30 RMK A01 T03460119  RH  026%=      5-min Rain = 0
KSM1 121740Z 25009KT 35/12 A2999 RMK A01 T03470120  RH  026%=      5-min Rain = 0
KSM1 121745Z 28004KT 35/12 A2999 RMK A01 T03480120  RH  026%=      5-min Rain = 0
KSM1 121750Z 27007KT 35/12 A2999 RMK A01 T03530120  RH  025%=      5-min Rain = 0
KSM1 121755Z 24008G14KT 36/12 A2999 RMK A01 T03550119  RH  025%=      5-min Rain = 0
KSM1 121800Z 26008G14KT 35/12 A2999 RMK A01 T03520119  RH  025%=      5-min Rain = 0
KSM1 121805Z 28006KT 35/12 A2998 RMK A01 T03530119  RH  025%=      5-min Rain = 0
KSM1 121810Z 25008KT 35/11 A2998 RMK A01 T03540112  RH  024%=      5-min Rain = 0
KSM1 121815Z 21007KT 35/11 A2998 RMK A01 T03530113  RH  024%=      5-min Rain = 0
KSM1 121820Z 23006G11KT 36/12 A2998 RMK A01 T03570118  RH  025%=      5-min Rain = 0
KSM1 121825Z 23008KT 36/12 A2998 RMK A01 T03600118  RH  024%=      5-min Rain = 0
KSM1 121830Z 24007G13KT 36/12 A2998 RMK A01 T03600119  RH  024%=      5-min Rain = 0
KSM1 121835Z 24006G11KT 36/11 A2998 RMK A01 T03590112  RH  023%=      5-min Rain = 0
KSM1 121840Z 23006G14KT 36/11 A2998 RMK A01 T03570112  RH  024%=      5-min Rain = 0
KSM1 121845Z 19010G15KT 36/11 A2998 RMK A01 T03610113  RH  023%=      5-min Rain = 0
KSM1 121850Z 20010G17KT 37/11 A2997 RMK A01 T03650112  RH  023%=      5-min Rain = 0
KSM1 121855Z 21011KT 37/11 A2997 RMK A01 T03670108  RH  022%=      5-min Rain = 0
KSM1 121900Z 23009KT 37/11 A2998 RMK A01 T03660109  RH  022%=      5-min Rain = 0
KSM1 121905Z 20006G11KT 37/11 A2997 RMK A01 T03650107  RH  022%=      5-min Rain = 0
KSM1 121910Z 22007G18KT 37/11 A2997 RMK A01 T03680108  RH  022%=      5-min Rain = 0
KSM1 121915Z 24010KT 36/10 A2997 RMK A01 T03640103  RH  021%=      5-min Rain = 0
KSM1 121920Z 23005G11KT 36/11 A2997 RMK A01 T03640107  RH  022%=      5-min Rain = 0
KSM1 121925Z 23011G17KT 37/10 A2997 RMK A01 T03700104  RH  021%=      5-min Rain = 0
KSM1 121930Z 22007KT 37/10 A2996 RMK A01 T03700103  RH  021%=      5-min Rain = 0
KSM1 121935Z 23011G16KT 37/10 A2997 RMK A01 T03730101  RH  020%=      5-min Rain = 0
KSM1 121940Z 21008KT 37/10 A2996 RMK A01 T03720101  RH  020%=      5-min Rain = 0
KSM1 121945Z 23011KT 37/10 A2996 RMK A01 T03720101  RH  020%=      5-min Rain = 0
KSM1 121950Z 24010G19KT 37/11 A2996 RMK A01 T03720108  RH  021%=      5-min Rain = 0
KSM1 121955Z 21009G16KT 37/11 A2996 RMK A01 T03730106  RH  021%=      5-min Rain = 0
KSM1 122000Z 21005G12KT 37/11 A2996 RMK A01 T03700107  RH  021%=      5-min Rain = 0
KSM1 122005Z 22005G11KT 37/11 A2995 RMK A01 T03730106  RH  021%=      5-min Rain = 0
KSM1 122010Z 24012G18KT 37/11 A2995 RMK A01 T03730105  RH  021%=      5-min Rain = 0
KSM1 122015Z 25009G14KT 37/10 A2995 RMK A01 T03720104  RH  021%=      5-min Rain = 0
KSM1 122020Z 25004KT 37/10 A2995 RMK A01 T03720104  RH  021%=      5-min Rain = 0
KSM1 122025Z 22009G19KT 37/10 A2994 RMK A01 T03740100  RH  020%=      5-min Rain = 0
KSM1 122030Z 22010G15KT 37/10 A2994 RMK A01 T03740099  RH  020%=      5-min Rain = 0
KSM1 122035Z 20011G18KT 38/10 A2994 RMK A01 T03760103  RH  020%=      5-min Rain = 0
KSM1 122040Z 22010G16KT 38/11 A2994 RMK A01 T03780107  RH  020%=      5-min Rain = 0
KSM1 122045Z 19004G9KT 38/11 A2994 RMK A01 T03750105  RH  020%=      5-min Rain = 0
KSM1 122050Z 22006KT 38/11 A2993 RMK A01 T03750105  RH  020%=      5-min Rain = 0
KSM1 122055Z 26011G17KT 38/10 A2993 RMK A01 T03800101  RH  019%=      5-min Rain = 0
KSM1 122100Z 24010G18KT 38/10 A2993 RMK A01 T03790100  RH  019%=      5-min Rain = 0
KSM1 122105Z 26009KT 38/10 A2993 RMK A01 T03790100  RH  019%=      5-min Rain = 0
KSM1 122110Z 26011KT 38/10 A2993 RMK A01 T03800098  RH  019%=      5-min Rain = 0
KSM1 122115Z 24008KT 38/10 A2993 RMK A01 T03800099  RH  019%=      5-min Rain = 0
KSM1 122120Z 27007G12KT 38/10 A2992 RMK A01 T03800100  RH  019%=      5-min Rain = 0
KSM1 122125Z 25011G17KT 38/10 A2992 RMK A01 T03810101  RH  019%=      5-min Rain = 0
KSM1 122130Z 23009G14KT 38/10 A2992 RMK A01 T03820099  RH  019%=      5-min Rain = 0
KSM1 122135Z 25010KT 38/10 A2992 RMK A01 T03800100  RH  019%=      5-min Rain = 0
KSM1 122140Z 25008G16KT 38/10 A2992 RMK A01 T03750100  RH  020%=      5-min Rain = 0
KSM1 122145Z 27010G17KT 38/10 A2992 RMK A01 T03750101  RH  020%=      5-min Rain = 0
KSM1 122150Z 26010G15KT 38/10 A2991 RMK A01 T03770099  RH  019%=      5-min Rain = 0
KSM1 122155Z 28008G13KT 38/10 A2991 RMK A01 T03760098  RH  019%=      5-min Rain = 0
KSM1 122200Z 27011G17KT 38/10 A2991 RMK A01 T03790097  RH  019%=      5-min Rain = 0
KSM1 122205Z 26011G17KT 38/09 A2991 RMK A01 T03830093  RH  018%=      5-min Rain = 0
KSM1 122210Z 25010G16KT 38/09 A2991 RMK A01 T03800086  RH  017%=      5-min Rain = 0
KSM1 122215Z 28009KT 38/08 A2991 RMK A01 T03820084  RH  017%=      5-min Rain = 0
KSM1 122220Z 30007G14KT 38/08 A2991 RMK A01 T03790081  RH  017%=      5-min Rain = 0
KSM1 122225Z 27011G16KT 38/08 A2991 RMK A01 T03790081  RH  017%=      5-min Rain = 0
KSM1 122230Z 29009KT 38/08 A2991 RMK A01 T03790077  RH  016%=      5-min Rain = 0
KSM1 122235Z 28009KT 38/08 A2991 RMK A01 T03800075  RH  016%=      5-min Rain = 0
KSM1 122240Z 27007KT 38/08 A2991 RMK A01 T03790075  RH  016%=      5-min Rain = 0
KSM1 122245Z 29005KT 38/08 A2991 RMK A01 T03790077  RH  016%=      5-min Rain = 0
KSM1 122250Z 28009G15KT 38/08 A2991 RMK A01 T03810079  RH  016%=      5-min Rain = 0
KSM1 122255Z 28008G13KT 38/08 A2991 RMK A01 T03770079  RH  017%=      5-min Rain = 0
KSM1 122300Z 27005KT 38/08 A2991 RMK A01 T03780080  RH  017%=      5-min Rain = 0
KSM1 122305Z 22006G11KT 38/08 A299 RMK A01 T03770082  RH  017%=      5-min Rain = 0
KSM1 122310Z 26007KT 38/08 A299 RMK A01 T03750080  RH  017%=      5-min Rain = 0
KSM1 122315Z 25004KT 38/08 A299 RMK A01 T03760081  RH  017%=      5-min Rain = 0
KSM1 122320Z 23004KT 38/08 A299 RMK A01 T03770080  RH  017%=      5-min Rain = 0
KSM1 122325Z 23005KT 38/08 A299 RMK A01 T03760081  RH  017%=      5-min Rain = 0
KSM1 122330Z 30006KT 38/08 A2989 RMK A01 T03760082  RH  017%=      5-min Rain = 0
KSM1 122335Z 30004KT 38/08 A2989 RMK A01 T03760082  RH  017%=      5-min Rain = 0
KSM1 122340Z 30002KT 38/08 A2989 RMK A01 T03790082  RH  017%=      5-min Rain = 0
KSM1 122345Z 26004KT 38/08 A2989 RMK A01 T03820082  RH  017%=      5-min Rain = 0
KSM1 122350Z 22004KT 38/08 A2989 RMK A01 T03760084  RH  017%=      5-min Rain = 0
KSM1 122355Z 18005KT 38/08 A2989 RMK A01 T03760084  RH  018%=      5-min Rain = 0
KSM1 130000Z 19005KT 37/08 A2989 RMK A01 T03740083  RH  018%=      5-min Rain = 0
KSM1 130005Z 21004KT 37/08 A2989 RMK A01 T03730084  RH  018%=      5-min Rain = 0
KSM1 130010Z 24004KT 38/09 A2989 RMK A01 T03750085  RH  018%=      5-min Rain = 0
KSM1 130015Z 21004KT 38/09 A2988 RMK A01 T03760088  RH  018%=      5-min Rain = 0
KSM1 130020Z 22004KT 38/09 A2988 RMK A01 T03750086  RH  018%=      5-min Rain = 0
KSM1 130025Z 25005G10KT 37/09 A2988 RMK A01 T03730087  RH  018%=      5-min Rain = 0
KSM1 130030Z 24007KT 37/09 A2988 RMK A01 T03710088  RH  018%=      5-min Rain = 0
KSM1 130035Z 22005KT 37/09 A2988 RMK A01 T03690090  RH  019%=      5-min Rain = 0
KSM1 130040Z 23005KT 37/09 A2988 RMK A01 T03690091  RH  019%=      5-min Rain = 0
KSM1 130045Z 22004KT 37/09 A2988 RMK A01 T03680090  RH  019%=      5-min Rain = 0
KSM1 130050Z 21003KT 37/09 A2988 RMK A01 T03680090  RH  019%=      5-min Rain = 0
KSM1 130055Z 22006KT 37/09 A2988 RMK A01 T03660092  RH  020%=      5-min Rain = 0
KSM1 130100Z 21005KT 36/09 A2988 RMK A01 T03640093  RH  020%=      5-min Rain = 0
KSM1 130105Z 21005KT 36/09 A2988 RMK A01 T03630093  RH  020%=      5-min Rain = 0
KSM1 130110Z 21004KT 36/09 A2988 RMK A01 T03620093  RH  020%=      5-min Rain = 0
KSM1 130115Z 20005KT 36/10 A2988 RMK A01 T03590096  RH  021%=      5-min Rain = 0
KSM1 130120Z 20005KT 35/10 A2989 RMK A01 T03540099  RH  022%=      5-min Rain = 0
KSM1 130125Z 19005KT 35/10 A2989 RMK A01 T03490101  RH  023%=      5-min Rain = 0
KSM1 130130Z 18005KT 34/11 A2989 RMK A01 T03420106  RH  024%=      5-min Rain = 0
KSM1 130135Z 18006KT 34/11 A2989 RMK A01 T03350106  RH  026%=      5-min Rain = 0
KSM1 130140Z 19006KT 33/10 A2989 RMK A01 T03310099  RH  025%=      5-min Rain = 0
KSM1 130145Z 19006KT 33/10 A2989 RMK A01 T03330095  RH  024%=      5-min Rain = 0
KSM1 130150Z 20005KT 33/09 A299 RMK A01 T03330094  RH  024%=      5-min Rain = 0
KSM1 130155Z 19005KT 33/09 A299 RMK A01 T03320094  RH  024%=      5-min Rain = 0
KSM1 130200Z 19005KT 33/10 A299 RMK A01 T03300096  RH  025%=      5-min Rain = 0
KSM1 130205Z 19006KT 33/10 A299 RMK A01 T03260096  RH  025%=      5-min Rain = 0
KSM1 130210Z 21005KT 33/09 A299 RMK A01 T03260093  RH  024%=      5-min Rain = 0
KSM1 130215Z 23005KT 33/09 A299 RMK A01 T03330092  RH  023%=      5-min Rain = 0
KSM1 130220Z 24004KT 33/10 A2991 RMK A01 T03310095  RH  024%=      5-min Rain = 0
KSM1 130225Z 27006KT 33/10 A2991 RMK A01 T03300096  RH  024%=      5-min Rain = 0
KSM1 130230Z 26006KT 33/10 A2991 RMK A01 T03320095  RH  024%=      5-min Rain = 0
KSM1 130235Z 29005KT 33/10 A2992 RMK A01 T03300099  RH  025%=      5-min Rain = 0
KSM1 130240Z 30005KT 32/10 A2992 RMK A01 T03210104  RH  027%=      5-min Rain = 0
KSM1 130245Z 30003KT 32/11 A2992 RMK A01 T03170106  RH  028%=      5-min Rain = 0
KSM1 130250Z 31005KT 31/11 A2992 RMK A01 T03120107  RH  029%=      5-min Rain = 0
KSM1 130255Z 32006KT 31/11 A2993 RMK A01 T03070107  RH  030%=      5-min Rain = 0
KSM1 130300Z 33006KT 30/11 A2993 RMK A01 T03000106  RH  031%=      5-min Rain = 0
KSM1 130305Z 33005KT 30/11 A2993 RMK A01 T02960106  RH  032%=      5-min Rain = 0
KSM1 130310Z 33005KT 29/11 A2993 RMK A01 T02940105  RH  032%=      5-min Rain = 0
KSM1 130315Z 32005KT 29/11 A2993 RMK A01 T02940106  RH  032%=      5-min Rain = 0
KSM1 130320Z 32004KT 29/11 A2993 RMK A01 T02920108  RH  033%=      5-min Rain = 0
KSM1 130325Z 33005KT 29/11 A2993 RMK A01 T02880109  RH  034%=      5-min Rain = 0
KSM1 130330Z 33005KT 28/11 A2993 RMK A01 T02830109  RH  035%=      5-min Rain = 0
KSM1 130335Z 33005KT 28/11 A2994 RMK A01 T02830108  RH  035%=      5-min Rain = 0
KSM1 130340Z 33004KT 29/11 A2994 RMK A01 T02850106  RH  034%=      5-min Rain = 0
KSM1 130345Z 33004KT 28/11 A2994 RMK A01 T02820107  RH  035%=      5-min Rain = 0
KSM1 130350Z 33005KT 28/11 A2994 RMK A01 T02790108  RH  036%=      5-min Rain = 0
KSM1 130355Z 33004KT 28/11 A2994 RMK A01 T02790108  RH  036%=      5-min Rain = 0
KSM1 130400Z 33005KT 28/11 A2994 RMK A01 T02800109  RH  036%=      5-min Rain = 0
KSM1 130405Z 33004KT 28/11 A2994 RMK A01 T02820109  RH  035%=      5-min Rain = 0
KSM1 130410Z 34004KT 28/11 A2994 RMK A01 T02810110  RH  036%=      5-min Rain = 0
KSM1 130415Z 35005KT 28/11 A2994 RMK A01 T02790108  RH  036%=      5-min Rain = 0
KSM1 130420Z 35005KT 28/11 A2994 RMK A01 T02760109  RH  037%=      5-min Rain = 0
KSM1 130425Z 35006KT 27/11 A2994 RMK A01 T02730109  RH  037%=      5-min Rain = 0
KSM1 130430Z 35006KT 27/11 A2994 RMK A01 T02700109  RH  038%=      5-min Rain = 0
KSM1 130435Z 35006KT 27/11 A2994 RMK A01 T02690109  RH  038%=      5-min Rain = 0
KSM1 130440Z 35006KT 27/11 A2994 RMK A01 T02710110  RH  038%=      5-min Rain = 0
KSM1 130445Z 35006KT 27/11 A2994 RMK A01 T02710110  RH  038%=      5-min Rain = 0
KSM1 130450Z 35006KT 27/11 A2994 RMK A01 T02660111  RH  039%=      5-min Rain = 0
KSM1 130455Z 35006KT 26/11 A2994 RMK A01 T02620111  RH  040%=      5-min Rain = 0

Page generated in 0.0338 seconds.